createdAt,value
2022-07-25T00:00:09.101Z,5.50
2022-07-25T00:03:11.094Z,6.00
2022-07-25T00:06:13.578Z,6.40
2022-07-25T00:09:19.682Z,5.90
2022-07-25T00:12:21.964Z,5.38
2022-07-25T00:15:24.360Z,6.13
2022-07-25T00:18:26.429Z,5.57
2022-07-25T00:24:44.160Z,5.10
2022-07-25T00:27:45.905Z,5.45
2022-07-25T00:30:48.147Z,5.72
2022-07-25T00:33:53.484Z,5.00
2022-07-25T00:37:06.168Z,5.20
2022-07-25T00:40:09.825Z,5.73
2022-07-25T00:43:11.824Z,5.32
2022-07-25T00:46:20.598Z,5.13
2022-07-25T00:49:24.476Z,5.60
2022-07-25T00:52:32.092Z,4.78
2022-07-25T00:55:34.353Z,4.95
2022-07-25T00:58:36.182Z,5.40
2022-07-25T01:01:39.617Z,5.45
2022-07-25T01:04:41.988Z,5.15
2022-07-25T01:07:47.810Z,5.80
2022-07-25T01:10:55.963Z,4.68
2022-07-25T01:14:07.547Z,5.07
2022-07-25T01:17:09.665Z,5.00
2022-07-25T01:20:15.410Z,5.35
2022-07-25T01:23:17.518Z,5.25
2022-07-25T01:26:19.416Z,5.05
2022-07-25T01:29:24.019Z,5.28
2022-07-25T01:32:26.141Z,5.30
2022-07-25T01:35:27.963Z,4.90
2022-07-25T01:38:29.736Z,5.57
2022-07-25T01:41:31.543Z,5.05
2022-07-25T01:44:33.468Z,4.93
2022-07-25T01:47:35.584Z,4.95
2022-07-25T01:50:37.662Z,5.35
2022-07-25T01:53:39.523Z,5.38
2022-07-25T01:56:46.979Z,5.45
2022-07-25T01:59:50.723Z,4.82
2022-07-25T02:03:12.569Z,5.22
2022-07-25T02:06:14.329Z,5.38
2022-07-25T02:09:16.110Z,5.40
2022-07-25T02:12:18.263Z,5.20
2022-07-25T02:15:20.473Z,5.00
2022-07-25T02:21:47.027Z,5.65
2022-07-25T02:24:48.959Z,6.40
2022-07-25T02:28:03.690Z,5.20
2022-07-25T02:31:05.784Z,5.38
2022-07-25T02:34:08.347Z,5.22
2022-07-25T02:40:22.192Z,5.78
2022-07-25T02:43:24.009Z,5.07
2022-07-25T02:46:26.018Z,6.40
2022-07-25T02:49:28.112Z,5.90
2022-07-25T02:52:29.815Z,5.13
2022-07-25T02:55:32.158Z,5.45
2022-07-25T02:58:34.171Z,5.70
2022-07-25T03:01:36.252Z,5.68
2022-07-25T03:04:38.606Z,5.55
2022-07-25T03:07:50.734Z,5.37
2022-07-25T03:10:52.621Z,5.15
2022-07-25T03:13:56.136Z,5.63
2022-07-25T03:16:58.378Z,5.00
2022-07-25T03:20:00.260Z,5.20
2022-07-25T03:23:02.133Z,5.30
2022-07-25T03:26:04.123Z,5.50
2022-07-25T03:29:06.220Z,5.72
2022-07-25T03:32:08.913Z,5.20
2022-07-25T03:35:14.029Z,4.75
2022-07-25T03:41:32.375Z,5.55
2022-07-25T03:44:34.593Z,5.13
2022-07-25T03:47:36.379Z,5.53
2022-07-25T03:51:01.172Z,5.03
2022-07-25T03:54:06.713Z,5.35
2022-07-25T03:57:12.402Z,5.68
2022-07-25T04:00:17.765Z,5.60
2022-07-25T04:03:19.879Z,5.15
2022-07-25T04:06:21.672Z,4.97
2022-07-25T04:09:23.753Z,5.22
2022-07-25T04:12:25.565Z,5.32
2022-07-25T04:15:27.500Z,5.28
2022-07-25T04:18:34.973Z,5.85
2022-07-25T04:21:42.921Z,5.22
2022-07-25T04:24:44.883Z,5.28
2022-07-25T04:27:49.889Z,5.40
2022-07-25T04:30:51.922Z,5.55
2022-07-25T04:33:53.890Z,5.60
2022-07-25T04:36:55.712Z,5.20
2022-07-25T04:40:05.027Z,4.75
2022-07-25T04:43:09.226Z,5.32
2022-07-25T04:46:11.354Z,5.25
2022-07-25T04:49:13.453Z,5.55
2022-07-25T04:52:18.553Z,5.15
2022-07-25T04:55:20.625Z,4.72
2022-07-25T04:58:22.554Z,5.38
2022-07-25T05:01:24.558Z,4.75
2022-07-25T05:04:26.668Z,5.18
2022-07-25T05:07:29.013Z,4.93
2022-07-25T05:10:31.860Z,5.25
2022-07-25T05:13:34.740Z,5.18
2022-07-25T05:16:36.717Z,5.25
2022-07-25T05:19:41.735Z,5.43
2022-07-25T05:22:43.740Z,5.15
2022-07-25T05:25:45.928Z,5.20
2022-07-25T05:28:47.861Z,5.65
2022-07-25T05:31:49.913Z,5.40
2022-07-25T05:34:52.306Z,5.63
2022-07-25T05:37:54.152Z,5.50
2022-07-25T05:44:14.481Z,5.82
2022-07-25T05:47:16.715Z,5.82
2022-07-25T05:50:18.500Z,5.68
2022-07-25T05:53:20.233Z,6.10
2022-07-25T05:56:22.474Z,5.75
2022-07-25T05:59:24.489Z,6.00
2022-07-25T06:02:26.877Z,5.75
2022-07-25T06:05:28.942Z,6.10
2022-07-25T06:08:31.085Z,5.68
2022-07-25T06:11:33.227Z,5.70
2022-07-25T06:14:36.366Z,5.72
2022-07-25T06:17:38.157Z,5.45
2022-07-25T06:20:40.284Z,5.68
2022-07-25T06:23:52.372Z,5.30
2022-07-25T06:26:56.796Z,5.13
2022-07-25T06:30:04.842Z,5.53
2022-07-25T06:33:06.692Z,5.15
2022-07-25T06:36:08.708Z,5.40
2022-07-25T06:39:10.687Z,5.15
2022-07-25T06:42:12.581Z,5.28
2022-07-25T06:45:15.678Z,5.40
2022-07-25T06:48:17.758Z,4.95
2022-07-25T06:51:19.615Z,5.57
2022-07-25T06:54:21.446Z,5.97
2022-07-25T06:57:23.837Z,5.90
2022-07-25T07:00:25.772Z,5.40
2022-07-25T07:03:27.623Z,5.18
2022-07-25T07:06:29.582Z,5.03
2022-07-25T07:09:31.907Z,4.90
2022-07-25T07:12:33.884Z,4.90
2022-07-25T07:15:39.718Z,4.70
2022-07-25T07:18:44.661Z,4.82
2022-07-25T07:21:51.698Z,4.88
2022-07-25T07:24:53.604Z,5.15
2022-07-25T07:27:55.715Z,4.70
2022-07-25T07:31:15.756Z,4.43
2022-07-25T07:34:18.963Z,4.53
2022-07-25T07:37:20.654Z,4.70
2022-07-25T07:40:23.268Z,4.68
2022-07-25T07:43:30.077Z,4.90
2022-07-25T07:46:32.426Z,4.57
2022-07-25T07:49:36.836Z,4.90
2022-07-25T07:52:39.206Z,4.22
2022-07-25T07:55:43.960Z,4.90
2022-07-25T07:58:46.144Z,4.55
2022-07-25T08:01:48.069Z,4.40
2022-07-25T08:04:50.046Z,4.05
2022-07-25T08:07:53.239Z,3.67
2022-07-25T08:10:58.702Z,3.65
2022-07-25T08:14:01.717Z,3.70
2022-07-25T08:17:03.566Z,3.70
2022-07-25T08:20:27.951Z,3.33
2022-07-25T08:23:32.057Z,3.58
2022-07-25T08:26:34.117Z,2.75
2022-07-25T08:29:36.368Z,2.72
2022-07-25T08:32:57.429Z,2.35
2022-07-25T08:35:59.941Z,2.70
2022-07-25T08:39:02.128Z,2.10
2022-07-25T08:42:09.090Z,2.53
2022-07-25T08:45:13.362Z,2.05
2022-07-25T08:48:26.609Z,2.70
2022-07-25T08:51:29.194Z,2.20
2022-07-25T08:54:31.497Z,2.00
2022-07-25T08:57:34.576Z,1.83
2022-07-25T09:00:36.471Z,2.03
2022-07-25T09:03:38.592Z,2.30
2022-07-25T09:06:52.760Z,1.92
2022-07-25T09:09:54.542Z,1.92
2022-07-25T09:13:05.243Z,2.00
2022-07-25T09:16:08.644Z,1.85
2022-07-25T09:19:12.682Z,1.75
2022-07-25T09:22:15.060Z,1.80
2022-07-25T09:25:25.156Z,2.00
2022-07-25T09:28:41.320Z,1.65
2022-07-25T09:31:43.889Z,2.00
2022-07-25T09:34:48.003Z,2.17
2022-07-25T09:37:49.935Z,2.30
2022-07-25T09:40:59.991Z,1.85
2022-07-25T09:44:02.151Z,2.10
2022-07-25T09:47:14.716Z,2.00
2022-07-25T09:50:17.049Z,1.67
2022-07-25T09:53:20.070Z,2.33
2022-07-25T09:56:21.984Z,2.35
2022-07-25T09:59:44.334Z,1.90
2022-07-25T10:02:53.431Z,1.90
2022-07-25T10:06:26.357Z,1.80
2022-07-25T10:16:05.634Z,1.90
2022-07-25T10:16:27.537Z,1.85
2022-07-25T10:19:44.801Z,1.88
2022-07-25T10:23:00.019Z,2.00
2022-07-25T10:26:16.237Z,1.77
2022-07-25T10:29:18.296Z,2.30
2022-07-25T10:32:34.183Z,1.95
2022-07-25T10:35:36.353Z,1.67
2022-07-25T10:38:42.326Z,1.95
2022-07-25T10:42:13.686Z,1.50
2022-07-25T10:45:18.317Z,1.60
2022-07-25T10:48:29.011Z,1.60
2022-07-25T10:51:41.598Z,1.77
2022-07-25T10:54:55.245Z,1.27
2022-07-25T10:58:17.204Z,1.40
2022-07-25T11:01:30.338Z,1.40
2022-07-25T11:04:32.842Z,1.90
2022-07-25T11:07:37.406Z,1.98
2022-07-25T11:10:52.310Z,1.75
2022-07-25T11:17:15.321Z,1.67
2022-07-25T11:20:19.429Z,1.67
2022-07-25T11:23:24.339Z,1.63
2022-07-25T11:26:32.242Z,1.73
2022-07-25T11:29:34.533Z,1.88
2022-07-25T11:32:52.052Z,1.42
2022-07-25T11:39:14.287Z,1.85
2022-07-25T11:42:20.593Z,1.73
2022-07-25T11:45:33.983Z,1.35
2022-07-25T11:51:39.767Z,2.30
2022-07-25T11:54:57.097Z,1.60
2022-07-25T11:58:01.795Z,1.83
2022-07-25T12:01:16.040Z,1.77
2022-07-25T12:04:22.547Z,1.55
2022-07-25T12:07:44.778Z,2.00
2022-07-25T12:10:49.173Z,1.80
2022-07-25T12:13:51.050Z,1.90
2022-07-25T12:16:58.793Z,2.75
2022-07-25T12:20:00.969Z,2.17
2022-07-25T12:23:10.355Z,2.42
2022-07-25T12:26:14.418Z,2.22
2022-07-25T12:29:16.161Z,1.83
2022-07-25T12:32:27.625Z,1.90
2022-07-25T12:35:32.837Z,1.73
2022-07-25T12:38:34.603Z,1.80
2022-07-25T12:41:36.422Z,1.70
2022-07-25T12:44:40.654Z,1.77
2022-07-25T12:47:49.005Z,1.92
2022-07-25T12:50:50.871Z,2.22
2022-07-25T12:53:58.811Z,2.10
2022-07-25T12:57:12.819Z,1.73
2022-07-25T13:00:27.393Z,1.98
2022-07-25T13:03:29.598Z,1.88
2022-07-25T13:06:38.581Z,2.20
2022-07-25T13:09:43.212Z,2.20
2022-07-25T13:12:45.999Z,2.42
2022-07-25T13:15:47.798Z,1.90
2022-07-25T13:18:49.889Z,1.88
2022-07-25T13:22:40.914Z,2.72
2022-07-25T13:25:19.815Z,2.17
2022-07-25T13:28:21.563Z,2.30
2022-07-25T13:31:23.781Z,2.45
2022-07-25T13:34:25.700Z,2.30
2022-07-25T13:37:27.864Z,2.05
2022-07-25T13:40:29.677Z,2.33
2022-07-25T13:43:31.416Z,2.45
2022-07-25T13:46:33.479Z,2.40
2022-07-25T13:49:37.035Z,2.17
2022-07-25T13:52:38.873Z,2.25
2022-07-25T13:55:41.789Z,2.63
2022-07-25T13:58:43.924Z,1.98
2022-07-25T14:01:50.831Z,1.65
2022-07-25T14:04:52.706Z,2.63
2022-07-25T14:08:03.663Z,1.65
2022-07-25T14:11:06.246Z,1.90
2022-07-25T14:14:18.140Z,2.08
2022-07-25T14:17:20.186Z,2.60
2022-07-25T14:20:22.011Z,1.92
2022-07-25T14:23:28.143Z,2.08
2022-07-25T14:26:33.239Z,1.63
2022-07-25T14:32:38.253Z,2.60
2022-07-25T14:35:42.730Z,2.35
2022-07-25T14:38:47.236Z,2.88
2022-07-25T14:41:55.280Z,1.85
2022-07-25T14:44:56.998Z,2.30
2022-07-25T14:47:58.882Z,2.05
2022-07-25T14:51:11.119Z,2.00
2022-07-25T14:54:13.123Z,1.67
2022-07-25T14:57:16.309Z,1.63
2022-07-25T15:03:20.276Z,2.30
2022-07-25T15:06:27.242Z,2.08
2022-07-25T15:09:30.667Z,1.90
2022-07-25T15:12:35.964Z,2.67
2022-07-25T15:15:38.319Z,2.28
2022-07-25T15:19:14.516Z,2.13
2022-07-25T15:22:08.910Z,2.00
2022-07-25T15:25:48.254Z,2.10
2022-07-25T15:28:33.970Z,2.15
2022-07-25T15:34:38.327Z,2.15
2022-07-25T15:37:40.208Z,2.08
2022-07-25T15:40:45.361Z,2.00
2022-07-25T15:43:47.418Z,2.17
2022-07-25T15:46:49.241Z,2.15
2022-07-25T15:49:51.277Z,2.05
2022-07-25T15:52:53.106Z,2.13
2022-07-25T15:56:15.359Z,2.22
2022-07-25T15:59:17.319Z,2.00
2022-07-25T16:02:19.501Z,1.90
2022-07-25T16:05:28.094Z,2.20
2022-07-25T16:08:29.938Z,2.40
2022-07-25T16:11:32.358Z,1.95
2022-07-25T16:14:34.423Z,2.10
2022-07-25T16:17:37.096Z,1.88
2022-07-25T16:20:39.041Z,1.80
2022-07-25T16:23:45.437Z,1.90
2022-07-25T16:26:49.031Z,1.75
2022-07-25T16:29:51.174Z,1.70
2022-07-25T16:33:02.255Z,1.23
2022-07-25T16:36:05.378Z,1.30
2022-07-25T16:39:07.678Z,1.50
2022-07-25T16:42:10.104Z,1.95
2022-07-25T16:45:12.415Z,1.35
2022-07-25T16:48:14.896Z,1.58
2022-07-25T16:51:16.739Z,1.30
2022-07-25T16:54:18.616Z,1.08
2022-07-25T16:57:23.118Z,1.60
2022-07-25T17:03:48.936Z,1.33
2022-07-25T17:06:56.770Z,1.30
2022-07-25T17:09:58.621Z,1.40
2022-07-25T17:13:00.403Z,1.65
2022-07-25T17:16:02.477Z,1.60
2022-07-25T17:19:05.016Z,1.17
2022-07-25T17:22:08.465Z,1.48
2022-07-25T17:25:11.486Z,1.50
2022-07-25T17:28:13.457Z,1.30
2022-07-25T17:31:15.515Z,1.20
2022-07-25T17:34:29.771Z,1.25
2022-07-25T17:37:39.155Z,0.98
2022-07-25T17:40:41.083Z,1.20
2022-07-25T17:43:49.048Z,1.10
2022-07-25T17:46:53.084Z,1.08
2022-07-25T17:49:55.174Z,1.00
2022-07-25T17:52:59.617Z,1.13
2022-07-25T17:56:02.399Z,0.70
2022-07-25T17:59:04.585Z,0.60
2022-07-25T18:02:06.480Z,0.60
2022-07-25T18:05:20.433Z,0.95
2022-07-25T18:08:33.096Z,1.10
2022-07-25T18:12:11.448Z,1.00
2022-07-25T18:15:26.808Z,1.10
2022-07-25T18:18:29.474Z,0.70
2022-07-25T18:21:47.659Z,0.82
2022-07-25T18:25:01.965Z,1.00
2022-07-25T18:28:03.920Z,1.15
2022-07-25T18:31:16.870Z,0.80
2022-07-25T18:34:25.002Z,0.80
2022-07-25T18:37:27.121Z,0.90
2022-07-25T18:40:29.254Z,1.05
2022-07-25T18:43:31.244Z,1.08
2022-07-25T18:46:34.196Z,1.13
2022-07-25T18:49:36.261Z,1.17
2022-07-25T18:56:12.588Z,0.70
2022-07-25T18:59:15.394Z,0.80
2022-07-25T19:02:17.714Z,0.82
2022-07-25T19:05:27.313Z,1.02
2022-07-25T19:08:33.056Z,1.15
2022-07-25T19:11:42.645Z,0.70
2022-07-25T19:14:46.696Z,1.13
2022-07-25T19:17:48.558Z,0.88
2022-07-25T19:20:58.251Z,0.98
2022-07-25T19:28:09.135Z,0.70
2022-07-25T19:31:33.883Z,0.70
2022-07-25T19:35:11.128Z,1.00
2022-07-25T19:38:12.950Z,0.60
2022-07-25T19:41:23.959Z,1.00
2022-07-25T19:44:25.812Z,1.00
2022-07-25T19:47:39.852Z,0.88
2022-07-25T19:54:15.162Z,0.80
2022-07-25T19:57:17.346Z,1.13
2022-07-25T20:07:58.104Z,0.90
2022-07-25T20:11:15.801Z,1.00
2022-07-25T20:14:32.884Z,1.17
2022-07-25T20:17:50.778Z,1.02
2022-07-25T20:20:53.181Z,1.20
2022-07-25T20:24:01.400Z,1.30
2022-07-25T20:27:22.597Z,1.00
2022-07-25T20:30:24.447Z,1.08
2022-07-25T20:33:27.240Z,0.68
2022-07-25T20:36:29.256Z,0.80
2022-07-25T20:39:31.086Z,0.75
2022-07-25T20:42:42.189Z,1.00
2022-07-25T20:45:44.566Z,0.65
2022-07-25T20:49:06.199Z,0.85
2022-07-25T20:52:20.628Z,0.80
2022-07-25T20:55:22.673Z,1.00
2022-07-25T20:58:36.519Z,0.98
2022-07-25T21:01:50.639Z,0.82
2022-07-25T21:04:52.441Z,0.80
2022-07-25T21:07:54.805Z,0.68
2022-07-25T21:10:58.719Z,0.80
2022-07-25T21:14:00.488Z,0.98
2022-07-25T21:17:02.773Z,0.68
2022-07-25T21:20:05.892Z,1.08
2022-07-25T21:23:09.999Z,0.90
2022-07-25T21:26:11.930Z,0.80
2022-07-25T21:29:13.988Z,0.70
2022-07-25T21:32:17.375Z,0.70
2022-07-25T21:35:19.446Z,0.88
2022-07-25T21:38:26.520Z,0.90
2022-07-25T21:41:30.744Z,1.20
2022-07-25T21:44:32.652Z,1.23
2022-07-25T21:47:34.489Z,1.30
2022-07-25T21:50:42.297Z,1.00
2022-07-25T21:53:47.733Z,0.90
2022-07-25T21:56:49.906Z,0.85
2022-07-25T21:59:51.837Z,1.00
2022-07-25T22:02:53.854Z,1.10
2022-07-25T22:05:55.605Z,1.00
2022-07-25T22:08:57.934Z,0.95
2022-07-25T22:12:00.045Z,1.02
2022-07-25T22:15:01.900Z,1.15
2022-07-25T22:18:04.364Z,1.15
2022-07-25T22:21:06.348Z,1.13
2022-07-25T22:24:09.351Z,1.33
2022-07-25T22:27:11.390Z,1.00
2022-07-25T22:30:18.864Z,1.17
2022-07-25T22:33:21.419Z,1.08
2022-07-25T22:36:23.284Z,1.02
2022-07-25T22:39:24.997Z,1.00
2022-07-25T22:42:26.977Z,1.02
2022-07-25T22:45:28.878Z,1.20
2022-07-25T22:48:30.784Z,0.88
2022-07-25T22:51:32.912Z,1.17
2022-07-25T22:54:35.395Z,1.23
2022-07-25T22:57:37.805Z,0.93
2022-07-25T23:00:39.875Z,0.93
2022-07-25T23:03:41.910Z,1.10
2022-07-25T23:06:44.363Z,1.40
2022-07-25T23:09:46.208Z,1.17
2022-07-25T23:12:48.147Z,1.10
2022-07-25T23:15:51.447Z,1.10
2022-07-25T23:18:55.586Z,1.00
2022-07-25T23:21:57.537Z,1.25
2022-07-25T23:24:59.431Z,1.35
2022-07-25T23:28:01.210Z,1.27
2022-07-25T23:31:03.257Z,1.35
2022-07-25T23:34:06.589Z,1.23
2022-07-25T23:40:10.809Z,1.20
2022-07-25T23:43:12.538Z,1.13
2022-07-25T23:46:16.784Z,1.10
2022-07-25T23:49:20.138Z,0.80
2022-07-25T23:52:22.262Z,1.40
2022-07-25T23:55:24.082Z,1.25
2022-07-25T23:58:25.806Z,1.23
